Time;durP1;ratioP1;P1;durP2;ratioP2;P2;SDS_P1;SDS_P2;PMS_P1;PMS_P2;Temp;Humidity;BMP_temperature;BMP_pressure;BME280_temperature;BME280_humidity;BME280_pressure;Samples;Min_cycle;Max_cycle;Signal;HPM_P1;HPM_P2
2021/12/29 00:00:26;;;;;;;11.07;1.90;;;6.80;99.90;;;;;;5052551;28;20082;-77
2021/12/29 00:02:53;;;;;;;8.77;1.80;;;6.80;99.90;;;;;;5052606;28;20029;-78
2021/12/29 00:05:19;;;;;;;10.43;2.13;;;6.90;99.90;;;;;;5053808;28;20067;-77
2021/12/29 00:07:45;;;;;;;11.10;2.38;;;6.80;99.90;;;;;;5052397;28;20064;-77
2021/12/29 00:10:13;;;;;;;9.45;2.67;;;6.90;99.90;;;;;;5052525;28;20032;-77
2021/12/29 00:12:44;;;;;;;9.40;2.33;;;6.80;99.90;;;;;;5052350;28;20503;-77
2021/12/29 00:15:12;;;;;;;13.05;2.70;;;6.80;99.90;;;;;;5052292;28;20021;-77
2021/12/29 00:17:43;;;;;;;8.48;2.28;;;6.80;99.90;;;;;;5052226;28;20036;-77
2021/12/29 00:20:10;;;;;;;9.27;1.88;;;6.80;99.90;;;;;;5052250;28;20021;-77
2021/12/29 00:22:37;;;;;;;13.05;2.00;;;6.80;99.90;;;;;;5053402;28;20485;-77
2021/12/29 00:25:04;;;;;;;8.50;1.65;;;6.80;99.90;;;;;;5052123;28;20499;-77
2021/12/29 00:27:30;;;;;;;8.60;1.60;;;6.80;99.90;;;;;;5051996;28;20021;-77
2021/12/29 00:29:56;;;;;;;7.55;1.98;;;6.70;99.90;;;;;;5052009;28;20021;-77
2021/12/29 00:32:22;;;;;;;9.25;1.67;;;6.70;99.90;;;;;;5053799;28;20017;-77
2021/12/29 00:34:47;;;;;;;13.07;1.88;;;6.70;99.90;;;;;;5051285;28;20052;-77
2021/12/29 00:37:13;;;;;;;10.77;2.05;;;6.70;99.90;;;;;;5051927;28;20029;-77
2021/12/29 00:39:39;;;;;;;13.27;1.98;;;6.70;99.90;;;;;;5053435;28;20476;-77
2021/12/29 00:42:05;;;;;;;5.13;1.35;;;6.80;99.90;;;;;;5051775;28;20060;-77
2021/12/29 00:44:32;;;;;;;12.60;2.10;;;6.80;99.90;;;;;;5051841;28;20032;-77
2021/12/29 00:46:59;;;;;;;8.73;1.67;;;6.80;99.90;;;;;;5051715;28;20032;-77
2021/12/29 00:49:32;;;;;;;12.43;1.77;;;6.80;99.90;;;;;;5051702;28;20021;-77
2021/12/29 00:51:59;;;;;;;11.30;2.00;;;6.80;99.90;;;;;;5053362;28;20079;-76
2021/12/29 00:54:25;;;;;;;10.15;1.77;;;6.80;99.90;;;;;;5051763;28;20024;-77
2021/12/29 00:56:51;;;;;;;8.35;1.40;;;6.80;99.90;;;;;;5051703;28;20557;-77
2021/12/29 00:59:19;;;;;;;8.98;1.63;;;6.80;99.90;;;;;;5051611;28;20056;-77
2021/12/29 01:01:46;;;;;;;6.10;1.30;;;6.80;99.90;;;;;;5053183;28;20028;-77
2021/12/29 01:04:12;;;;;;;7.15;1.25;;;6.80;99.90;;;;;;5052123;28;20558;-77
2021/12/29 01:06:37;;;;;;;11.10;1.42;;;6.80;99.90;;;;;;5051508;28;20029;-77
2021/12/29 01:09:03;;;;;;;5.57;1.38;;;6.80;99.90;;;;;;5051636;28;20384;-77
2021/12/29 01:11:29;;;;;;;7.03;1.42;;;6.80;99.90;;;;;;5051549;28;20380;-77
2021/12/29 01:13:55;;;;;;;5.85;1.10;;;6.80;99.90;;;;;;5051618;28;20029;-77
2021/12/29 01:19:13;;;;;;;7.03;1.70;;;6.90;99.90;;;;;;5053195;28;20029;-77
2021/12/29 01:21:43;;;;;;;6.15;1.40;;;6.90;99.90;;;;;;5053337;28;20025;-77
2021/12/29 01:24:10;;;;;;;7.97;1.63;;;6.90;99.90;;;;;;5052990;28;20025;-77
2021/12/29 01:26:37;;;;;;;4.65;1.02;;;6.90;99.90;;;;;;5052888;28;20465;-77
2021/12/29 01:29:03;;;;;;;5.60;1.10;;;6.90;99.90;;;;;;5051441;28;20021;-77
2021/12/29 01:31:29;;;;;;;5.05;0.95;;;6.90;99.90;;;;;;5052883;28;20055;-77
2021/12/29 01:33:55;;;;;;;7.65;1.73;;;6.90;99.90;;;;;;5051847;28;20075;-77
2021/12/29 01:36:21;;;;;;;7.97;1.17;;;6.80;99.90;;;;;;5052588;28;20029;-78
2021/12/29 01:38:47;;;;;;;9.93;1.60;;;6.80;99.90;;;;;;5052631;28;20036;-77
2021/12/29 01:41:12;;;;;;;6.53;1.70;;;6.80;99.90;;;;;;5051148;28;20047;-77
2021/12/29 01:43:38;;;;;;;8.55;1.80;;;6.80;99.90;;;;;;5053087;28;20087;-77
2021/12/29 01:46:04;;;;;;;6.88;1.70;;;6.80;99.90;;;;;;5052269;28;20029;-77
2021/12/29 01:48:30;;;;;;;4.22;1.35;;;6.80;99.90;;;;;;5055039;28;20538;-77
2021/12/29 01:50:56;;;;;;;5.43;1.40;;;6.80;99.90;;;;;;5056373;28;20059;-77
2021/12/29 01:53:25;;;;;;;7.03;1.33;;;6.80;99.90;;;;;;5055041;28;20040;-77
2021/12/29 01:55:51;;;;;;;5.63;1.45;;;6.80;99.90;;;;;;5054975;28;20108;-77
2021/12/29 01:58:20;;;;;;;6.90;1.08;;;6.80;99.90;;;;;;5054990;28;20025;-77
2021/12/29 02:00:47;;;;;;;4.38;1.48;;;6.80;99.90;;;;;;5056240;28;20251;-78
2021/12/29 02:03:13;;;;;;;3.83;1.50;;;6.70;99.90;;;;;;5054978;28;20021;-77
2021/12/29 02:05:41;;;;;;;5.15;1.42;;;6.80;99.90;;;;;;5056163;28;20369;-77
2021/12/29 02:08:08;;;;;;;4.35;1.80;;;6.80;99.90;;;;;;5054678;28;20373;-77
2021/12/29 02:10:43;;;;;;;3.88;1.08;;;6.80;99.90;;;;;;5055956;28;20021;-77
2021/12/29 02:13:10;;;;;;;7.45;2.35;;;6.80;99.90;;;;;;5054688;28;20476;-77
2021/12/29 02:15:36;;;;;;;1.98;1.20;;;6.80;99.90;;;;;;5055946;28;20024;-77
2021/12/29 02:18:11;;;;;;;4.40;1.40;;;6.80;99.90;;;;;;5055746;28;20029;-77
2021/12/29 02:20:37;;;;;;;9.95;1.52;;;6.80;99.90;;;;;;5054468;28;20021;-77
2021/12/29 02:23:14;;;;;;;4.25;1.13;;;6.80;99.90;;;;;;5055688;28;20025;-77
2021/12/29 02:25:54;;;;;;;5.05;1.42;;;6.70;99.90;;;;;;5054718;28;20029;-77
2021/12/29 02:28:34;;;;;;;4.15;1.20;;;6.80;99.90;;;;;;5054351;28;20485;-78
2021/12/29 02:31:01;;;;;;;4.55;1.48;;;6.80;99.90;;;;;;5055881;28;20013;-77
2021/12/29 02:33:30;;;;;;;1.98;0.80;;;6.80;99.90;;;;;;5055515;28;20083;-77
2021/12/29 02:35:58;;;;;;;2.40;0.68;;;6.70;99.90;;;;;;5055497;28;20017;-77
2021/12/29 02:38:30;;;;;;;2.47;0.60;;;6.70;99.90;;;;;;5054166;28;20219;-77
2021/12/29 02:40:59;;;;;;;2.72;0.80;;;6.70;99.90;;;;;;5053983;28;20041;-77
2021/12/29 02:43:26;;;;;;;2.33;0.80;;;6.60;99.90;;;;;;5054060;28;20032;-77
2021/12/29 02:45:58;;;;;;;1.25;0.63;;;6.60;99.90;;;;;;5053893;28;20021;-78
2021/12/29 02:48:30;;;;;;;4.82;1.23;;;6.60;99.90;;;;;;5055532;28;20029;-77
2021/12/29 02:50:58;;;;;;;3.55;0.98;;;6.60;99.90;;;;;;5053914;28;20032;-77
2021/12/29 02:53:25;;;;;;;4.05;0.80;;;6.60;99.90;;;;;;5053800;28;20052;-77
2021/12/29 02:55:53;;;;;;;1.92;0.50;;;6.50;99.90;;;;;;5055134;28;20442;-77
2021/12/29 02:58:20;;;;;;;4.07;1.00;;;6.50;99.90;;;;;;5054367;28;20032;-77
2021/12/29 03:00:46;;;;;;;5.10;0.68;;;6.50;99.90;;;;;;5055060;28;20416;-77
2021/12/29 03:03:21;;;;;;;1.63;0.50;;;6.50;99.90;;;;;;5053720;28;20476;-77
2021/12/29 03:05:48;;;;;;;3.55;0.77;;;6.60;99.90;;;;;;5053599;28;20536;-77
2021/12/29 03:08:16;;;;;;;2.33;1.05;;;6.60;99.90;;;;;;5053617;28;20369;-78
2021/12/29 03:10:42;;;;;;;2.13;0.85;;;6.60;99.90;;;;;;5053505;28;20029;-77
2021/12/29 03:13:08;;;;;;;3.30;1.02;;;6.60;99.90;;;;;;5053461;28;20032;-77
2021/12/29 03:15:35;;;;;;;4.68;0.80;;;6.50;99.90;;;;;;5053461;28;20029;-78
2021/12/29 03:18:02;;;;;;;2.72;0.77;;;6.60;99.90;;;;;;5053580;28;20021;-77
2021/12/29 03:20:28;;;;;;;2.35;0.77;;;6.60;99.90;;;;;;5054733;28;20029;-77
2021/12/29 03:22:54;;;;;;;2.50;0.90;;;6.50;99.90;;;;;;5053417;28;20111;-78
2021/12/29 03:25:22;;;;;;;2.53;0.88;;;6.60;99.90;;;;;;5053336;28;20029;-78
2021/12/29 03:27:47;;;;;;;2.58;0.70;;;6.50;99.90;;;;;;5053098;28;20036;-78
2021/12/29 03:30:13;;;;;;;2.40;0.95;;;6.50;99.90;;;;;;5054531;28;20021;-78
2021/12/29 03:32:43;;;;;;;2.38;1.00;;;6.50;99.90;;;;;;5054605;28;20472;-78
2021/12/29 03:35:09;;;;;;;2.28;0.80;;;6.50;99.90;;;;;;5054708;28;20111;-77
2021/12/29 03:37:36;;;;;;;2.90;0.60;;;6.50;99.90;;;;;;5054385;28;20075;-77
2021/12/29 03:40:04;;;;;;;2.95;0.57;;;6.50;99.90;;;;;;5052792;28;20053;-77
2021/12/29 03:42:30;;;;;;;2.83;0.80;;;6.50;99.90;;;;;;5054851;28;20484;-78
2021/12/29 03:44:56;;;;;;;3.45;0.40;;;6.50;99.90;;;;;;5052905;28;20028;-77
2021/12/29 03:47:22;;;;;;;1.23;0.63;;;6.40;99.90;;;;;;5052694;28;20554;-78
2021/12/29 03:49:47;;;;;;;2.92;0.70;;;6.50;99.90;;;;;;5054345;28;20102;-77
2021/12/29 03:52:13;;;;;;;2.60;0.60;;;6.40;99.90;;;;;;5052753;28;20027;-77
2021/12/29 03:54:39;;;;;;;1.40;0.40;;;6.40;99.90;;;;;;5053047;28;20534;-78
2021/12/29 03:57:05;;;;;;;1.80;0.88;;;6.40;99.90;;;;;;5054523;28;20029;-77
2021/12/29 03:59:31;;;;;;;2.92;0.70;;;6.40;99.90;;;;;;5053995;28;20032;-77
2021/12/29 04:01:57;;;;;;;4.72;0.93;;;6.40;99.90;;;;;;5054190;28;20025;-77
2021/12/29 04:04:23;;;;;;;1.13;0.40;;;6.40;99.90;;;;;;5053866;28;20048;-77
2021/12/29 04:06:49;;;;;;;2.30;0.50;;;6.40;99.90;;;;;;5054134;28;20465;-77
2021/12/29 04:09:15;;;;;;;2.60;0.63;;;6.40;99.90;;;;;;5053015;28;20100;-77
2021/12/29 04:11:41;;;;;;;5.22;0.70;;;6.30;99.90;;;;;;5052329;28;20496;-78
2021/12/29 04:14:08;;;;;;;1.40;0.60;;;6.30;99.90;;;;;;5053603;28;20029;-77
2021/12/29 04:16:40;;;;;;;1.27;0.50;;;6.30;99.90;;;;;;5053514;28;20485;-78
2021/12/29 04:19:08;;;;;;;4.63;0.70;;;6.40;99.90;;;;;;5052296;28;20029;-77
2021/12/29 04:21:36;;;;;;;2.50;0.80;;;6.60;99.90;;;;;;5052186;28;20031;-77
2021/12/29 04:24:03;;;;;;;5.32;0.65;;;6.60;99.90;;;;;;5052192;28;20393;-77
2021/12/29 04:26:31;;;;;;;3.47;0.40;;;6.60;99.90;;;;;;5052051;28;20028;-77
2021/12/29 04:28:57;;;;;;;2.20;0.73;;;6.60;99.90;;;;;;5052092;28;20389;-77
2021/12/29 04:31:22;;;;;;;4.93;0.63;;;6.60;99.90;;;;;;5053605;28;20025;-77
2021/12/29 04:33:49;;;;;;;2.63;0.50;;;6.50;99.90;;;;;;5052045;28;20056;-77
2021/12/29 04:36:15;;;;;;;2.45;0.32;;;6.60;99.90;;;;;;5052063;28;20175;-78
2021/12/29 04:38:41;;;;;;;0.70;0.47;;;6.60;99.90;;;;;;5052015;28;20083;-77
2021/12/29 04:41:07;;;;;;;1.00;0.45;;;6.60;99.90;;;;;;5051753;28;20055;-77
2021/12/29 04:43:33;;;;;;;4.25;0.65;;;6.70;99.90;;;;;;5053165;28;20025;-77
2021/12/29 04:45:59;;;;;;;2.25;0.40;;;6.70;99.90;;;;;;5051810;28;20029;-77
2021/12/29 04:48:25;;;;;;;1.00;0.47;;;6.70;99.90;;;;;;5051760;28;20035;-77
2021/12/29 04:51:05;;;;;;;4.18;0.60;;;6.80;99.90;;;;;;5053099;28;20385;-77
2021/12/29 04:53:32;;;;;;;18.15;5.00;;;6.80;99.90;;;;;;5053369;28;20376;-77
2021/12/29 04:55:58;;;;;;;49.50;10.93;;;6.70;99.90;;;;;;5051992;28;20022;-77
2021/12/29 04:58:23;;;;;;;5.78;1.67;;;6.80;99.90;;;;;;5053538;28;20021;-77
2021/12/29 05:00:51;;;;;;;8.00;1.65;;;6.80;99.90;;;;;;5052318;28;20021;-77
2021/12/29 05:03:18;;;;;;;5.18;0.70;;;6.80;99.90;;;;;;5051639;28;20017;-77
2021/12/29 05:05:54;;;;;;;1.95;0.70;;;6.80;99.90;;;;;;5051623;28;20527;-77
2021/12/29 05:08:28;;;;;;;2.67;0.77;;;6.90;99.90;;;;;;5051633;28;20112;-77
2021/12/29 05:10:56;;;;;;;;;;;6.90;99.90;;;;;;5052081;28;20484;-77
2021/12/29 05:13:22;;;;;;;1.75;0.65;;;6.80;99.90;;;;;;5051565;28;20253;-78
2021/12/29 05:15:48;;;;;;;3.80;0.82;;;6.80;99.90;;;;;;5052802;28;20492;-77
2021/12/29 05:18:14;;;;;;;2.72;0.60;;;6.70;99.90;;;;;;5051518;28;20025;-77
2021/12/29 05:20:40;;;;;;;5.07;0.60;;;6.70;99.90;;;;;;5053177;28;20424;-77
2021/12/29 05:23:06;;;;;;;3.08;0.60;;;6.70;99.90;;;;;;5057097;28;20025;-77
2021/12/29 05:25:32;;;;;;;4.05;1.00;;;6.70;99.90;;;;;;5056744;28;20055;-77
2021/12/29 05:27:57;;;;;;;5.20;1.38;;;6.90;99.90;;;;;;5056654;28;20529;-77
2021/12/29 05:30:23;;;;;;;1.75;0.65;;;6.90;99.90;;;;;;5055418;28;20028;-77
2021/12/29 05:32:50;;;;;;;5.15;0.88;;;6.90;99.90;;;;;;5055349;28;20025;-78
2021/12/29 05:35:16;;;;;;;7.22;0.90;;;6.90;99.90;;;;;;5055334;28;20048;-77
2021/12/29 05:37:42;;;;;;;4.03;0.60;;;7.00;99.90;;;;;;5055246;28;20082;-77
2021/12/29 05:40:09;;;;;;;3.03;0.88;;;7.10;99.90;;;;;;5056583;28;20041;-77
2021/12/29 05:42:35;;;;;;;5.07;0.85;;;7.10;99.90;;;;;;5056528;28;20025;-78
2021/12/29 05:45:04;;;;;;;2.15;0.60;;;7.10;99.90;;;;;;5055137;28;20140;-77
2021/12/29 05:47:30;;;;;;;5.05;0.80;;;7.10;99.90;;;;;;5054926;28;20377;-77
2021/12/29 05:49:56;;;;;;;4.72;0.93;;;7.00;99.90;;;;;;5056327;28;20021;-78
2021/12/29 05:52:22;;;;;;;3.58;0.90;;;7.00;99.90;;;;;;5054974;28;20017;-77
2021/12/29 05:54:48;;;;;;;3.92;0.82;;;7.00;99.90;;;;;;5056246;28;20036;-77
2021/12/29 05:57:14;;;;;;;3.28;0.82;;;6.90;99.90;;;;;;5055197;28;20365;-78
2021/12/29 05:59:39;;;;;;;2.33;0.77;;;6.80;99.90;;;;;;5056124;28;20029;-77
2021/12/29 06:02:05;;;;;;;2.28;0.70;;;6.80;99.90;;;;;;5054843;28;20135;-77
2021/12/29 06:04:31;;;;;;;4.90;0.90;;;6.80;99.90;;;;;;5056054;28;20537;-78
2021/12/29 06:06:57;;;;;;;5.10;1.15;;;6.80;99.90;;;;;;5055907;28;20051;-78
2021/12/29 06:09:23;;;;;;;3.58;0.88;;;6.80;99.90;;;;;;5055960;28;20017;-77
2021/12/29 06:11:49;;;;;;;4.47;1.00;;;6.80;99.90;;;;;;5056135;28;20017;-77
2021/12/29 06:14:14;;;;;;;4.47;1.10;;;6.80;99.90;;;;;;5055892;28;20562;-78
2021/12/29 06:16:40;;;;;;;17.38;10.57;;;6.70;99.90;;;;;;5054529;28;20025;-77
2021/12/29 06:19:06;;;;;;;11.23;5.72;;;6.70;99.90;;;;;;5054551;28;20036;-78
2021/12/29 06:21:32;;;;;;;4.30;2.10;;;6.70;99.90;;;;;;5054467;28;20425;-77
2021/12/29 06:23:57;;;;;;;6.03;1.40;;;6.60;99.90;;;;;;5054442;28;20065;-77
2021/12/29 06:26:23;;;;;;;3.58;0.90;;;6.70;99.90;;;;;;5054336;28;20052;-77
2021/12/29 06:28:49;;;;;;;4.80;1.00;;;6.70;99.90;;;;;;5054322;28;20444;-77
2021/12/29 06:31:15;;;;;;;6.93;0.90;;;6.60;99.90;;;;;;5054308;28;20045;-77
2021/12/29 06:33:41;;;;;;;5.63;1.23;;;6.70;99.90;;;;;;5053146;28;20017;-77
2021/12/29 06:36:07;;;;;;;2.42;1.02;;;6.70;99.90;;;;;;5054196;28;20025;-77
2021/12/29 06:38:34;;;;;;;6.82;1.40;;;6.80;99.90;;;;;;5054124;28;20025;-77
2021/12/29 06:41:01;;;;;;;3.55;1.00;;;6.70;99.90;;;;;;5053980;28;20087;-77
2021/12/29 06:43:26;;;;;;;5.32;1.08;;;6.70;99.90;;;;;;5055656;28;20017;-77
2021/12/29 06:45:52;;;;;;;5.85;1.38;;;6.70;99.90;;;;;;5054045;28;20028;-78
2021/12/29 06:48:18;;;;;;;7.05;1.10;;;6.70;99.90;;;;;;5053859;28;20033;-77
2021/12/29 06:50:45;;;;;;;2.45;0.82;;;6.70;99.90;;;;;;5053914;28;20109;-77
2021/12/29 06:53:11;;;;;;;3.30;0.90;;;6.70;99.90;;;;;;5053886;28;20028;-77
2021/12/29 06:55:39;;;;;;;3.90;0.90;;;6.70;99.90;;;;;;5053833;28;20435;-77
2021/12/29 06:58:05;;;;;;;5.70;1.08;;;6.80;99.90;;;;;;5054105;28;20112;-78
2021/12/29 07:00:32;;;;;;;6.38;0.80;;;6.80;99.90;;;;;;5055095;28;20365;-77
2021/12/29 07:02:59;;;;;;;2.97;1.30;;;6.80;99.90;;;;;;5055246;28;20024;-77
2021/12/29 07:05:25;;;;;;;2.92;1.02;;;6.70;99.90;;;;;;5053696;28;20021;-77
2021/12/29 07:07:52;;;;;;;4.70;0.85;;;6.80;99.90;;;;;;5053531;28;20029;-77
2021/12/29 07:10:18;;;;;;;3.78;1.30;;;6.80;99.90;;;;;;5054906;28;20047;-78
2021/12/29 07:12:44;;;;;;;3.63;0.85;;;6.80;99.90;;;;;;5053538;28;20025;-77
2021/12/29 07:15:09;;;;;;;3.53;1.27;;;6.80;99.90;;;;;;5055020;28;20044;-77
2021/12/29 07:17:35;;;;;;;3.58;1.20;;;6.80;99.90;;;;;;5053473;28;20032;-77
2021/12/29 07:20:01;;;;;;;3.58;1.20;;;6.80;99.90;;;;;;5054681;28;20025;-77
2021/12/29 07:22:27;;;;;;;3.70;1.10;;;6.80;99.90;;;;;;5053382;28;20021;-77
2021/12/29 07:24:52;;;;;;;5.15;1.00;;;6.80;99.90;;;;;;5053315;28;20398;-77
2021/12/29 07:27:18;;;;;;;6.55;1.33;;;6.80;99.90;;;;;;5053202;28;20480;-77
2021/12/29 07:29:44;;;;;;;5.50;1.27;;;6.90;99.90;;;;;;5053191;28;20075;-77
2021/12/29 07:32:10;;;;;;;4.18;1.25;;;6.80;99.90;;;;;;5054415;28;20094;-77
2021/12/29 07:34:36;;;;;;;5.10;1.40;;;6.90;99.90;;;;;;5054398;28;20028;-77
2021/12/29 07:37:02;;;;;;;4.65;1.20;;;6.90;99.90;;;;;;5053065;28;20021;-77
2021/12/29 07:39:28;;;;;;;4.93;1.00;;;6.90;99.90;;;;;;5053007;28;20078;-77
2021/12/29 07:41:54;;;;;;;8.68;2.00;;;6.90;99.90;;;;;;5052820;28;20496;-77
2021/12/29 07:44:22;;;;;;;4.07;1.30;;;6.90;99.90;;;;;;5052711;28;20037;-77
2021/12/29 07:46:52;;;;;;;2.45;0.95;;;6.90;99.90;;;;;;5052810;28;20033;-77
2021/12/29 07:49:19;;;;;;;8.68;1.40;;;6.90;99.90;;;;;;5054302;28;20041;-78
2021/12/29 07:51:45;;;;;;;3.67;1.20;;;6.90;99.90;;;;;;5052800;28;20500;-77
2021/12/29 07:54:13;;;;;;;5.57;1.52;;;6.80;99.90;;;;;;5053907;28;20017;-77
2021/12/29 07:56:40;;;;;;;6.43;1.10;;;6.80;99.90;;;;;;5053913;28;20477;-77
2021/12/29 07:59:06;;;;;;;7.93;1.33;;;6.80;99.90;;;;;;5054199;28;20477;-77
2021/12/29 08:01:32;;;;;;;2.22;0.85;;;6.80;99.90;;;;;;5054139;28;20127;-77
2021/12/29 08:03:58;;;;;;;4.45;1.20;;;6.80;99.90;;;;;;5052458;28;20033;-78
2021/12/29 08:06:25;;;;;;;7.00;2.15;;;6.80;99.90;;;;;;5053746;28;20489;-77
2021/12/29 08:08:51;;;;;;;8.27;2.90;;;6.80;99.90;;;;;;5052435;28;20021;-77
2021/12/29 08:11:19;;;;;;;3.25;1.42;;;6.80;99.90;;;;;;5052436;28;20105;-77
2021/12/29 08:13:45;;;;;;;5.95;2.03;;;6.70;99.90;;;;;;5052356;28;20020;-77
2021/12/29 08:16:11;;;;;;;5.80;2.35;;;6.80;99.90;;;;;;5053605;28;20404;-77
2021/12/29 08:18:37;;;;;;;5.65;2.65;;;6.80;99.90;;;;;;5052231;28;20025;-78
2021/12/29 08:21:03;;;;;;;8.65;1.80;;;6.80;99.90;;;;;;5052264;28;20428;-78
2021/12/29 08:23:29;;;;;;;3.40;1.10;;;6.80;99.90;;;;;;5053987;28;20020;-77
2021/12/29 08:25:54;;;;;;;3.92;1.40;;;6.80;99.90;;;;;;5053472;28;20025;-77
2021/12/29 08:28:22;;;;;;;8.60;3.58;;;6.80;99.90;;;;;;5051993;28;20032;-77
2021/12/29 08:30:48;;;;;;;7.82;4.47;;;6.90;99.90;;;;;;5051997;28;20425;-77
2021/12/29 08:33:14;;;;;;;11.90;6.00;;;6.90;99.90;;;;;;5053256;28;20067;-77
2021/12/29 08:35:40;;;;;;;12.60;6.45;;;6.90;99.90;;;;;;5052015;28;20472;-77
2021/12/29 08:38:06;;;;;;;7.07;4.35;;;7.00;99.90;;;;;;5053142;28;20028;-78
2021/12/29 08:40:32;;;;;;;7.28;2.55;;;7.00;99.90;;;;;;5052995;28;20131;-77
2021/12/29 08:42:58;;;;;;;8.23;3.13;;;7.00;99.90;;;;;;5053495;28;20082;-78
2021/12/29 08:45:26;;;;;;;6.93;2.50;;;7.10;99.90;;;;;;5053186;28;20510;-77
2021/12/29 08:47:55;;;;;;;7.07;3.28;;;7.10;99.90;;;;;;5051598;28;20029;-78
2021/12/29 08:50:22;;;;;;;4.07;1.73;;;7.10;99.90;;;;;;5051789;28;20029;-78
2021/12/29 08:52:48;;;;;;;3.70;1.60;;;7.10;99.90;;;;;;5051798;28;20481;-77
2021/12/29 08:55:15;;;;;;;5.93;3.42;;;7.20;99.90;;;;;;5051338;28;20021;-77
2021/12/29 08:57:41;;;;;;;8.25;4.35;;;7.10;99.90;;;;;;5052796;28;20032;-77
2021/12/29 09:00:14;;;;;;;7.35;4.65;;;7.20;99.90;;;;;;5052937;28;20033;-77
2021/12/29 09:02:41;;;;;;;7.13;1.75;;;7.30;99.90;;;;;;5051555;28;20025;-77
2021/12/29 09:05:08;;;;;;;5.15;1.75;;;7.30;99.90;;;;;;5052799;28;20027;-77
2021/12/29 09:07:34;;;;;;;10.63;1.75;;;7.30;99.90;;;;;;5052742;28;20410;-77
2021/12/29 09:10:00;;;;;;;6.00;2.30;;;7.40;99.90;;;;;;5051499;28;20032;-78
2021/12/29 09:12:26;;;;;;;5.03;1.35;;;7.50;99.90;;;;;;5051456;28;20435;-78
2021/12/29 09:14:52;;;;;;;3.67;1.25;;;7.50;99.90;;;;;;5051278;28;20025;-78
2021/12/29 09:17:18;;;;;;;8.68;1.10;;;7.70;99.90;;;;;;5051325;28;20039;-78
2021/12/29 09:19:45;;;;;;;4.05;1.02;;;7.80;99.90;;;;;;5051399;28;20485;-78
2021/12/29 09:22:12;;;;;;;5.63;0.77;;;7.80;99.90;;;;;;5051411;28;20021;-78
2021/12/29 09:24:39;;;;;;;4.13;1.05;;;7.90;99.90;;;;;;5052650;28;20499;-78
2021/12/29 09:27:05;;;;;;;4.43;0.80;;;7.90;99.90;;;;;;5052540;28;20021;-78
2021/12/29 09:29:34;;;;;;;5.60;1.08;;;8.00;99.90;;;;;;5051920;28;20522;-78
2021/12/29 09:32:04;;;;;;;3.20;0.88;;;8.00;99.90;;;;;;5053195;28;20025;-78
2021/12/29 09:34:32;;;;;;;3.15;1.33;;;8.00;99.90;;;;;;5051319;28;20020;-79
2021/12/29 09:36:59;;;;;;;3.45;1.20;;;8.00;99.90;;;;;;5052575;28;20393;-79
2021/12/29 09:39:25;;;;;;;6.07;1.42;;;8.00;99.90;;;;;;5052561;28;20032;-78
2021/12/29 09:41:52;;;;;;;2.97;1.13;;;8.00;99.90;;;;;;5051047;28;20045;-78
2021/12/29 09:44:18;;;;;;;4.72;1.13;;;8.00;99.90;;;;;;5051227;28;20477;-78
2021/12/29 09:46:44;;;;;;;5.50;1.08;;;8.00;99.90;;;;;;5052368;28;20021;-78
2021/12/29 09:49:10;;;;;;;7.25;1.60;;;8.10;99.90;;;;;;5051095;28;20389;-78
2021/12/29 09:51:36;;;;;;;5.07;1.30;;;8.10;99.90;;;;;;5051157;28;20025;-78
2021/12/29 09:54:03;;;;;;;4.55;1.45;;;8.10;99.90;;;;;;5052470;28;20017;-78
2021/12/29 09:56:29;;;;;;;4.40;1.38;;;8.10;99.90;;;;;;5051089;28;20036;-78
2021/12/29 09:58:56;;;;;;;4.80;1.52;;;8.20;99.90;;;;;;5052424;28;20385;-78
2021/12/29 10:01:22;;;;;;;7.10;1.73;;;8.20;99.90;;;;;;5051032;28;20485;-79
2021/12/29 10:03:48;;;;;;;11.05;2.58;;;8.20;99.90;;;;;;5051041;28;20508;-78
2021/12/29 10:06:15;;;;;;;7.45;1.45;;;8.20;99.90;;;;;;5050952;28;20029;-79
2021/12/29 10:08:44;;;;;;;2.22;0.88;;;8.30;99.90;;;;;;5055635;28;20071;-78
2021/12/29 10:11:24;;;;;;;4.32;0.93;;;8.30;99.90;;;;;;5055857;28;20021;-78
2021/12/29 10:13:50;;;;;;;2.35;1.00;;;8.40;99.90;;;;;;5055724;28;20017;-78
2021/12/29 10:16:25;;;;;;;4.38;1.13;;;8.40;99.90;;;;;;5055950;28;20021;-78
2021/12/29 10:18:59;;;;;;;5.45;1.15;;;8.40;99.90;;;;;;5054476;28;20484;-80
2021/12/29 10:21:26;;;;;;;8.55;1.52;;;8.40;99.90;;;;;;5054474;28;20024;-78
2021/12/29 10:23:54;;;;;;;3.08;1.05;;;8.40;99.90;;;;;;5055649;28;20035;-78
2021/12/29 10:26:28;;;;;;;3.38;0.80;;;8.40;99.90;;;;;;5055788;28;20067;-78
2021/12/29 10:29:00;;;;;;;6.78;0.90;;;8.30;99.90;;;;;;5054341;28;20369;-78
2021/12/29 10:31:42;;;;;;;5.47;1.10;;;8.40;99.90;;;;;;5054271;28;20025;-78
2021/12/29 10:34:11;;;;;;;7.10;1.27;;;8.40;99.90;;;;;;5056078;28;20040;-78
2021/12/29 10:36:43;;;;;;;3.78;1.23;;;8.40;99.90;;;;;;5055459;28;20021;-78
2021/12/29 10:39:19;;;;;;;3.97;0.90;;;8.40;99.90;;;;;;5054062;28;20123;-78
2021/12/29 10:41:47;;;;;;;3.88;0.88;;;8.50;99.90;;;;;;5054003;28;20056;-78
2021/12/29 10:44:14;;;;;;;3.22;0.90;;;8.50;99.90;;;;;;5055563;28;20342;-78
2021/12/29 10:46:40;;;;;;;1.98;0.90;;;8.50;99.90;;;;;;5053842;28;20365;-79
2021/12/29 10:49:08;;;;;;;3.88;1.17;;;8.50;99.90;;;;;;5055376;28;20025;-78
2021/12/29 10:51:37;;;;;;;5.32;0.95;;;8.40;99.90;;;;;;5053930;28;20031;-78
2021/12/29 10:54:14;;;;;;;3.50;0.95;;;8.40;99.90;;;;;;5053808;28;20524;-78
2021/12/29 10:56:44;;;;;;;6.35;0.82;;;8.40;99.90;;;;;;5055589;28;20381;-78
2021/12/29 10:59:22;;;;;;;5.68;1.23;;;8.30;99.90;;;;;;5053701;28;20033;-78
2021/12/29 11:01:49;;;;;;;6.15;1.20;;;8.30;99.90;;;;;;5055267;28;20100;-78
2021/12/29 11:04:16;;;;;;;6.78;1.30;;;8.30;99.90;;;;;;5053640;28;20029;-79
2021/12/29 11:06:44;;;;;;;3.97;1.00;;;8.30;99.90;;;;;;5054826;28;20028;-78
2021/12/29 11:09:11;;;;;;;4.72;1.35;;;8.20;99.90;;;;;;5053618;28;20399;-78
2021/12/29 11:11:43;;;;;;;3.67;1.10;;;8.10;99.90;;;;;;5054876;28;20024;-78
2021/12/29 11:14:28;;;;;;;1.52;0.90;;;8.20;99.90;;;;;;5053532;28;20392;-78
2021/12/29 11:17:24;;;;;;;5.60;1.10;;;8.10;99.90;;;;;;5053464;28;20032;-79
2021/12/29 11:19:56;;;;;;;4.82;1.13;;;8.10;99.90;;;;;;5053822;28;20064;-78
2021/12/29 11:22:25;;;;;;;3.90;1.10;;;8.10;99.90;;;;;;5037234;28;20025;-79
2021/12/29 11:25:01;;;;;;;8.57;1.15;;;8.10;99.90;;;;;;5054636;28;20032;-78
2021/12/29 11:27:28;;;;;;;3.50;1.02;;;8.10;99.90;;;;;;5053250;28;20029;-78
2021/12/29 11:29:59;;;;;;;6.97;1.00;;;8.10;99.90;;;;;;5053171;28;20082;-79
2021/12/29 11:32:32;;;;;;;4.50;0.95;;;8.10;99.90;;;;;;5053165;28;20366;-79
2021/12/29 11:35:00;;;;;;;3.38;1.45;;;8.10;99.90;;;;;;5053124;28;20104;-79
2021/12/29 11:37:25;;;;;;;2.55;1.08;;;8.10;99.90;;;;;;5054608;28;20089;-78
2021/12/29 11:39:51;;;;;;;5.38;1.15;;;8.10;99.90;;;;;;5053039;28;20106;-79
2021/12/29 11:42:17;;;;;;;3.47;1.45;;;8.10;99.90;;;;;;5052750;28;20048;-80
2021/12/29 11:44:44;;;;;;;6.43;1.30;;;8.10;99.90;;;;;;5052942;28;20031;-79
2021/12/29 11:47:11;;;;;;;5.10;1.15;;;8.20;99.90;;;;;;5053980;28;20048;-79
2021/12/29 11:49:37;;;;;;;9.70;1.58;;;8.20;99.90;;;;;;5052785;28;20053;-79
2021/12/29 11:52:07;;;;;;;4.72;1.90;;;8.30;99.90;;;;;;5052690;28;20051;-79
2021/12/29 11:55:02;;;;;;;3.10;0.88;;;8.30;99.90;;;;;;5052717;28;20028;-79
2021/12/29 11:57:31;;;;;;;4.85;1.52;;;8.40;99.90;;;;;;5052760;28;20036;-79
2021/12/29 12:00:19;;;;;;;7.53;1.50;;;8.30;99.90;;;;;;5054164;28;20083;-80
2021/12/29 12:02:50;;;;;;;11.13;1.30;;;8.30;99.90;;;;;;5052616;28;20390;-79
2021/12/29 12:05:19;;;;;;;9.10;1.42;;;8.30;99.90;;;;;;5052684;28;20091;-79
2021/12/29 12:07:45;;;;;;;9.73;1.70;;;8.30;99.90;;;;;;5053690;28;20134;-79
2021/12/29 12:10:24;;;;;;;11.38;1.88;;;8.30;99.90;;;;;;5052388;28;20385;-79
2021/12/29 12:12:53;;;;;;;8.10;1.40;;;8.20;99.90;;;;;;5052429;28;20055;-79
2021/12/29 12:15:38;;;;;;;10.80;1.60;;;8.10;99.90;;;;;;5052335;28;20029;-79
2021/12/29 12:18:07;;;;;;;6.75;1.02;;;8.10;99.90;;;;;;5052301;28;20029;-79
2021/12/29 12:20:49;;;;;;;8.23;1.83;;;8.10;99.90;;;;;;5052274;28;20021;-79
2021/12/29 12:23:28;;;;;;;19.65;2.70;;;8.10;99.90;;;;;;5052263;28;20025;-79
2021/12/29 12:26:07;;;;;;;20.58;2.80;;;8.10;99.90;;;;;;5052097;28;20115;-79
2021/12/29 12:28:47;;;;;;;8.40;2.40;;;8.10;99.90;;;;;;5053364;28;20106;-79
2021/12/29 12:31:30;;;;;;;10.50;2.50;;;8.20;99.90;;;;;;5051299;28;20536;-79
2021/12/29 12:34:13;;;;;;;11.80;2.40;;;8.30;99.90;;;;;;5052172;28;20025;-79
2021/12/29 12:36:41;;;;;;;48.38;6.07;;;8.20;99.90;;;;;;5052053;28;20024;-79
2021/12/29 12:39:15;;;;;;;19.70;2.92;;;8.20;99.90;;;;;;5051967;28;20094;-79
2021/12/29 12:41:42;;;;;;;;;;;8.20;99.90;;;;;;5052178;28;20044;-79
2021/12/29 12:44:08;;;;;;;14.23;3.45;;;8.20;99.90;;;;;;5051957;28;19912;-79
2021/12/29 12:46:43;;;;;;;12.63;2.85;;;8.30;99.90;;;;;;5053122;28;20036;-79
2021/12/29 12:49:18;;;;;;;10.65;2.67;;;8.30;99.90;;;;;;5051701;28;20400;-79
2021/12/29 12:52:04;;;;;;;13.23;2.33;;;8.30;99.90;;;;;;5051776;28;20013;-79
2021/12/29 12:54:36;;;;;;;12.95;2.90;;;8.40;99.90;;;;;;5051794;28;20409;-79
2021/12/29 12:57:04;;;;;;;12.40;2.40;;;8.40;99.90;;;;;;5053285;28;20550;-79
2021/12/29 12:59:37;;;;;;;8.73;1.77;;;8.50;99.90;;;;;;5052954;28;20075;-79
2021/12/29 13:02:16;;;;;;;11.07;2.45;;;8.50;99.90;;;;;;5051659;28;20029;-80